Time;durP1;ratioP1;P1;durP2;ratioP2;P2;SDS_P1;SDS_P2;PMS_P1;PMS_P2;Temp;Humidity;BMP_temperature;BMP_pressure;BME280_temperature;BME280_humidity;BME280_pressure;Samples;Min_cycle;Max_cycle;Signal;HPM_P1;HPM_P2
2023/07/29 00:00:04;;;;;;;;;;;;;;;16.66;70.72;95069.72;5152080;27;1011;-60
2023/07/29 00:02:32;;;;;;;;;;;;;;;16.66;71.28;95075.94;5151777;27;1020;-60
2023/07/29 00:04:58;;;;;;;;;;;;;;;16.63;71.51;95068.22;5151751;27;1126;-60
2023/07/29 00:07:24;;;;;;;;;;;;;;;16.57;71.36;95064.47;5151483;27;1913;-60
2023/07/29 00:09:50;;;;;;;;;;;;;;;16.56;72.25;95070.91;5151885;27;981;-61
2023/07/29 00:12:16;;;;;;;;;;;;;;;16.35;72.77;95062.88;5151718;27;1048;-60
2023/07/29 00:14:42;;;;;;;;;;;;;;;16.12;73.25;95072.09;5151838;27;1027;-61
2023/07/29 00:17:08;;;;;;;;;;;;;;;16.19;73.48;95072.13;5151630;27;1265;-60
2023/07/29 00:19:34;;;;;;;;;;;;;;;16.29;72.32;95066.38;5151704;27;1044;-60
2023/07/29 00:22:00;;;;;;;;;;;;;;;16.12;73.14;95068.56;5133061;27;1334;-60
2023/07/29 00:24:26;;;;;;;;;;;;;;;15.76;74.76;95078.50;5133202;27;1056;-60
2023/07/29 00:26:52;;;;;;;;;;;;;;;15.51;75.96;95072.63;5151544;27;1917;-60
2023/07/29 00:29:18;;;;;;;;;;;;;;;15.43;76.18;95070.06;5161394;27;1109;-60
2023/07/29 00:31:44;;;;;;;;;;;;;;;15.68;75.32;95067.78;5151380;27;984;-60
2023/07/29 00:34:09;;;;;;;;;;;;;;;15.97;73.67;95069.53;5133092;27;1047;-61
2023/07/29 00:36:35;;;;;;;;;;;;;;;16.35;72.00;95063.75;5151129;27;1008;-61
2023/07/29 00:39:01;;;;;;;;;;;;;;;16.37;71.82;95064.38;5142114;27;1031;-60
2023/07/29 00:41:27;;;;;;;;;;;;;;;16.09;73.17;95067.09;5119043;27;1103;-60
2023/07/29 00:43:53;;;;;;;;;;;;;;;15.81;74.18;95064.41;5137232;27;1098;-60
2023/07/29 00:46:20;;;;;;;;;;;;;;;15.80;75.11;95062.72;5137247;27;1910;-61
2023/07/29 00:48:45;;;;;;;;;;;;;;;16.24;72.76;95049.94;5137221;27;974;-61
2023/07/29 00:51:11;;;;;;;;;;;;;;;16.17;73.07;95053.44;5137247;27;988;-60
2023/07/29 00:53:37;;;;;;;;;;;;;;;15.78;74.34;95060.25;5137033;27;1031;-61
2023/07/29 00:56:04;;;;;;;;;;;;;;;15.46;76.33;95058.06;5137202;27;979;-60
2023/07/29 00:58:30;;;;;;;;;;;;;;;15.55;76.13;95054.22;5137087;27;1014;-60
2023/07/29 01:00:57;;;;;;;;;;;;;;;15.74;74.93;95052.75;5136975;27;971;-61
2023/07/29 01:03:22;;;;;;;;;;;;;;;15.87;74.30;95052.84;5136825;27;999;-61
2023/07/29 01:05:48;;;;;;;;;;;;;;;16.02;73.54;95057.31;5137062;27;1052;-60
2023/07/29 01:08:17;;;;;;;;;;;;;;;16.06;72.81;95051.31;5136917;27;1910;-61
2023/07/29 01:10:50;;;;;;;;;;;;;;;15.85;73.69;95054.06;5118796;27;1127;-61
2023/07/29 01:13:36;;;;;;;;;;;;;;;15.80;74.68;95052.81;5136640;27;981;-60
2023/07/29 01:16:07;;;;;;;;;;;;;;;15.89;74.21;95049.94;5119017;27;1252;-61
2023/07/29 01:18:35;;;;;;;;;;;;;;;15.84;74.94;95055.09;5136526;27;1064;-61
2023/07/29 01:21:07;;;;;;;;;;;;;;;15.73;74.79;95053.75;5136515;27;1036;-60
2023/07/29 01:23:36;;;;;;;;;;;;;;;15.53;76.41;95054.41;5136575;27;1048;-61
2023/07/29 01:26:03;;;;;;;;;;;;;;;15.79;74.68;95048.44;5136607;27;957;-61
2023/07/29 01:28:29;;;;;;;;;;;;;;;15.66;75.27;95050.16;5138488;27;1188;-60
2023/07/29 01:30:59;;;;;;;;;;;;;;;15.64;75.59;95053.03;5157003;27;1094;-60
2023/07/29 01:33:26;;;;;;;;;;;;;;;15.70;75.35;95057.66;5157231;27;1039;-61
2023/07/29 01:36:02;;;;;;;;;;;;;;;15.75;75.07;95059.81;5157299;27;991;-60
2023/07/29 01:38:33;;;;;;;;;;;;;;;15.48;75.72;95051.47;5156971;27;1051;-60
2023/07/29 01:41:01;;;;;;;;;;;;;;;15.21;77.42;95066.53;5157200;27;1020;-60
2023/07/29 01:43:31;;;;;;;;;;;;;;;15.18;77.39;95056.97;5156727;27;1031;-61
2023/07/29 01:45:56;;;;;;;;;;;;;;;15.58;75.71;95053.84;5156729;27;1138;-60
2023/07/29 01:48:23;;;;;;;;;;;;;;;15.66;75.37;95048.28;5156770;27;1918;-61
2023/07/29 01:50:49;;;;;;;;;;;;;;;15.61;75.01;95053.41;5155756;27;999;-60
2023/07/29 01:53:15;;;;;;;;;;;;;;;15.51;75.80;95051.06;5156807;27;971;-61
2023/07/29 01:55:44;;;;;;;;;;;;;;;15.31;76.54;95053.59;5156687;27;1051;-60
2023/07/29 01:58:10;;;;;;;;;;;;;;;15.19;76.89;95053.25;5156427;27;1035;-60
2023/07/29 02:00:36;;;;;;;;;;;;;;;15.17;76.88;95049.09;5156769;27;1055;-60
2023/07/29 02:03:02;;;;;;;;;;;;;;;15.36;76.41;95058.41;5156560;27;964;-60
2023/07/29 02:05:28;;;;;;;;;;;;;;;15.39;76.40;95049.94;5156451;27;1137;-60
2023/07/29 02:07:54;;;;;;;;;;;;;;;15.32;76.35;95051.72;5156478;27;1905;-60
2023/07/29 02:10:20;;;;;;;;;;;;;;;15.35;76.76;95059.44;5156477;27;973;-60
2023/07/29 02:12:46;;;;;;;;;;;;;;;15.30;76.83;95053.78;5156162;27;1020;-60
2023/07/29 02:15:12;;;;;;;;;;;;;;;15.17;77.31;95052.63;5156254;27;979;-60
2023/07/29 02:17:39;;;;;;;;;;;;;;;15.23;77.29;95057.25;5156297;27;1035;-60
2023/07/29 02:20:06;;;;;;;;;;;;;;;15.41;76.27;95054.09;5156038;27;1039;-60
2023/07/29 02:22:31;;;;;;;;;;;;;;;15.43;75.54;95051.22;5155930;27;1095;-60
2023/07/29 02:24:57;;;;;;;;;;;;;;;15.37;76.47;95052.81;5155944;27;1071;-60
2023/07/29 02:27:26;;;;;;;;;;;;;;;15.22;77.48;95058.25;5155780;27;1913;-60
2023/07/29 02:29:53;;;;;;;;;;;;;;;15.15;77.63;95051.97;5141686;27;1227;-60
2023/07/29 02:32:19;;;;;;;;;;;;;;;15.20;77.19;95057.63;5135212;27;969;-60
2023/07/29 02:34:45;;;;;;;;;;;;;;;15.41;76.44;95059.47;5135135;27;1102;-60
2023/07/29 02:37:11;;;;;;;;;;;;;;;15.44;76.08;95063.63;5134905;27;1099;-60
2023/07/29 02:39:37;;;;;;;;;;;;;;;15.33;77.17;95064.19;5135079;27;991;-60
2023/07/29 02:42:03;;;;;;;;;;;;;;;15.19;77.11;95066.72;5135265;27;1036;-60
2023/07/29 02:44:29;;;;;;;;;;;;;;;14.99;78.44;95060.31;5135130;27;1002;-60
2023/07/29 02:46:55;;;;;;;;;;;;;;;15.17;77.81;95067.94;5134988;27;2055;-60
2023/07/29 02:49:23;;;;;;;;;;;;;;;14.89;78.56;95066.00;5134948;27;976;-60
2023/07/29 02:51:49;;;;;;;;;;;;;;;14.88;79.05;95064.31;5134737;27;1095;-60
2023/07/29 02:54:15;;;;;;;;;;;;;;;14.91;79.39;95069.34;5134801;27;1228;-60
2023/07/29 02:56:41;;;;;;;;;;;;;;;14.82;78.97;95065.09;5134671;27;1036;-60
2023/07/29 02:59:07;;;;;;;;;;;;;;;14.77;79.45;95068.34;5116506;27;1039;-60
2023/07/29 03:01:33;;;;;;;;;;;;;;;14.88;79.31;95064.31;5134317;27;910;-60
2023/07/29 03:03:59;;;;;;;;;;;;;;;14.92;78.86;95071.00;5134891;27;973;-60
2023/07/29 03:06:25;;;;;;;;;;;;;;;14.84;78.91;95073.81;5134711;27;1993;-60
2023/07/29 03:08:51;;;;;;;;;;;;;;;14.80;79.17;95077.91;5134575;27;935;-60
2023/07/29 03:11:17;;;;;;;;;;;;;;;14.86;78.97;95079.84;5134436;27;1050;-60
2023/07/29 03:13:43;;;;;;;;;;;;;;;14.67;79.77;95080.44;5134794;27;952;-60
2023/07/29 03:16:10;;;;;;;;;;;;;;;14.69;79.73;95079.22;5134636;27;1021;-60
2023/07/29 03:18:36;;;;;;;;;;;;;;;14.67;79.80;95072.38;5134401;27;1106;-60
2023/07/29 03:21:02;;;;;;;;;;;;;;;14.83;79.17;95072.97;5134530;27;1039;-60
2023/07/29 03:23:29;;;;;;;;;;;;;;;14.84;79.35;95074.63;5134301;27;1091;-60
2023/07/29 03:25:57;;;;;;;;;;;;;;;14.69;79.62;95076.53;5134293;28;1040;-60
2023/07/29 03:28:30;;;;;;;;;;;;;;;14.56;80.32;95071.78;5117322;27;1984;-61
2023/07/29 03:30:56;;;;;;;;;;;;;;;14.68;80.06;95082.09;5155230;27;1303;-60
2023/07/29 03:33:23;;;;;;;;;;;;;;;14.90;79.24;95083.81;5155109;27;968;-59
2023/07/29 03:35:49;;;;;;;;;;;;;;;15.00;78.50;95088.88;5154979;27;1075;-61
2023/07/29 03:38:15;;;;;;;;;;;;;;;15.12;77.72;95092.75;5154930;27;1030;-60
2023/07/29 03:40:41;;;;;;;;;;;;;;;14.90;78.92;95091.88;5154865;27;975;-59
2023/07/29 03:43:07;;;;;;;;;;;;;;;14.68;79.77;95087.47;5154901;27;1079;-59
2023/07/29 03:45:34;;;;;;;;;;;;;;;14.69;79.67;95086.47;5154828;27;1141;-60
2023/07/29 03:48:00;;;;;;;;;;;;;;;15.05;77.79;95086.47;5154922;27;1913;-58
2023/07/29 03:50:26;;;;;;;;;;;;;;;15.05;78.08;95086.47;5154805;27;969;-61
2023/07/29 03:52:52;;;;;;;;;;;;;;;15.12;78.27;95091.91;5155035;27;1020;-59
2023/07/29 03:55:18;;;;;;;;;;;;;;;15.41;76.84;95078.34;5154604;27;1098;-59
2023/07/29 03:57:44;;;;;;;;;;;;;;;15.53;76.74;95080.50;5154972;27;1071;-59
2023/07/29 04:00:10;;;;;;;;;;;;;;;15.41;77.76;95086.41;5154893;27;1035;-60
2023/07/29 04:02:37;;;;;;;;;;;;;;;15.59;76.62;95083.28;5154714;27;1052;-59
2023/07/29 04:05:03;;;;;;;;;;;;;;;15.65;77.39;95076.28;5154536;27;1063;-59
2023/07/29 04:07:30;;;;;;;;;;;;;;;15.78;77.21;95087.22;5154398;27;1909;-59
2023/07/29 04:09:56;;;;;;;;;;;;;;;16.21;74.30;95091.66;5154495;27;953;-59
2023/07/29 04:12:23;;;;;;;;;;;;;;;16.41;73.88;95086.41;5154630;27;1051;-59
2023/07/29 04:14:49;;;;;;;;;;;;;;;16.30;76.04;95097.75;5157555;27;1091;-59
2023/07/29 04:17:15;;;;;;;;;;;;;;;16.26;75.99;95097.31;5158285;27;1039;-60
2023/07/29 04:19:41;;;;;;;;;;;;;;;16.34;75.74;95101.72;5158325;27;1283;-60
2023/07/29 04:22:07;;;;;;;;;;;;;;;16.32;76.57;95101.91;5158443;27;1063;-59
2023/07/29 04:24:33;;;;;;;;;;;;;;;16.55;75.72;95093.50;5158153;27;991;-59
2023/07/29 04:26:58;;;;;;;;;;;;;;;16.45;77.19;95094.91;5142131;27;1930;-59
2023/07/29 04:29:24;;;;;;;;;;;;;;;16.66;75.32;95096.69;5147748;27;1516;-59
2023/07/29 04:31:51;;;;;;;;;;;;;;;16.70;75.82;95096.09;5158443;27;1020;-59
2023/07/29 04:34:17;;;;;;;;;;;;;;;16.97;74.23;95096.22;5158156;27;1083;-59
2023/07/29 04:36:43;;;;;;;;;;;;;;;17.07;74.92;95102.06;5158416;27;1039;-59
2023/07/29 04:39:09;;;;;;;;;;;;;;;17.22;74.72;95104.63;5157991;27;1048;-61
2023/07/29 04:41:35;;;;;;;;;;;;;;;17.39;73.52;95106.94;5158251;27;1228;-60
2023/07/29 04:44:01;;;;;;;;;;;;;;;17.47;76.05;95104.06;5158256;27;1044;-60
2023/07/29 04:46:27;;;;;;;;;;;;;;;17.53;73.58;95103.25;5158134;27;1988;-60
2023/07/29 04:48:53;;;;;;;;;;;;;;;17.74;73.25;95103.06;5158333;27;965;-60
2023/07/29 04:51:19;;;;;;;;;;;;;;;17.92;73.49;95104.34;5157770;27;1028;-62
2023/07/29 04:53:45;;;;;;;;;;;;;;;18.07;73.25;95112.25;5157640;27;1103;-62
2023/07/29 04:56:11;;;;;;;;;;;;;;;18.12;72.45;95110.59;5157883;27;956;-60
2023/07/29 04:58:37;;;;;;;;;;;;;;;18.28;69.21;95117.44;5157890;27;1048;-62
2023/07/29 05:01:04;;;;;;;;;;;;;;;18.61;67.19;95119.28;5157652;27;1043;-61
2023/07/29 05:03:30;;;;;;;;;;;;;;;18.92;68.21;95113.16;5157660;27;1200;-61
2023/07/29 05:05:57;;;;;;;;;;;;;;;19.11;68.00;95110.59;5157658;27;989;-61
2023/07/29 05:08:23;;;;;;;;;;;;;;;19.37;65.00;95111.50;5157327;27;1977;-61
2023/07/29 05:10:49;;;;;;;;;;;;;;;19.37;65.34;95108.78;5157473;27;1098;-61
2023/07/29 05:13:16;;;;;;;;;;;;;;;19.44;65.11;95115.00;5157687;27;1007;-61
2023/07/29 05:15:42;;;;;;;;;;;;;;;19.29;65.72;95121.56;5157696;27;969;-60
2023/07/29 05:18:07;;;;;;;;;;;;;;;19.54;65.54;95118.09;5157443;27;1019;-60
2023/07/29 05:20:33;;;;;;;;;;;;;;;19.67;64.03;95122.56;5157335;27;1032;-61
2023/07/29 05:23:00;;;;;;;;;;;;;;;19.79;63.84;95123.59;5157223;27;1078;-61
2023/07/29 05:25:27;;;;;;;;;;;;;;;19.79;64.82;95139.03;5157041;27;1031;-60
2023/07/29 05:27:53;;;;;;;;;;;;;;;19.84;63.04;95128.34;5157043;27;1989;-61
2023/07/29 05:30:19;;;;;;;;;;;;;;;19.86;62.87;95131.66;5139198;27;1152;-61
2023/07/29 05:32:44;;;;;;;;;;;;;;;19.96;62.23;95131.19;5136289;27;1047;-61
2023/07/29 05:35:10;;;;;;;;;;;;;;;20.09;62.52;95136.53;5136264;27;1565;-60
2023/07/29 05:37:40;;;;;;;;;;;;;;;20.25;61.11;95130.53;5136228;27;1087;-60
2023/07/29 05:40:06;;;;;;;;;;;;;;;20.37;62.18;95129.81;5136383;27;957;-61
2023/07/29 05:42:33;;;;;;;;;;;;;;;20.21;62.82;95132.03;5136286;27;988;-61
2023/07/29 05:44:59;;;;;;;;;;;;;;;20.24;62.52;95131.59;5136062;27;1567;-61
2023/07/29 05:47:24;;;;;;;;;;;;;;;20.43;62.02;95132.47;5136147;27;1909;-61
2023/07/29 05:49:50;;;;;;;;;;;;;;;20.44;62.52;95133.28;5136303;27;999;-60
2023/07/29 05:52:16;;;;;;;;;;;;;;;20.47;62.90;95136.41;5135778;27;966;-60
2023/07/29 05:54:42;;;;;;;;;;;;;;;20.56;62.70;95133.38;5135848;27;1052;-60
2023/07/29 05:57:09;;;;;;;;;;;;;;;20.65;61.44;95127.47;5135810;27;1035;-61
2023/07/29 05:59:35;;;;;;;;;;;;;;;20.84;61.94;95139.19;5135771;27;1546;-61
2023/07/29 06:02:01;;;;;;;;;;;;;;;20.93;61.55;95133.47;5136011;27;1117;-61
2023/07/29 06:04:27;;;;;;;;;;;;;;;21.10;61.91;95130.97;5135539;27;1090;-60
2023/07/29 06:06:55;;;;;;;;;;;;;;;21.20;60.92;95137.53;5117349;27;1987;-60
2023/07/29 06:09:21;;;;;;;;;;;;;;;21.30;59.37;95134.25;5135797;27;1059;-58
2023/07/29 06:11:47;;;;;;;;;;;;;;;21.53;60.39;95124.59;5135547;27;1083;-58
2023/07/29 06:14:13;;;;;;;;;;;;;;;21.76;60.19;95121.97;5135675;27;1055;-58
2023/07/29 06:16:39;;;;;;;;;;;;;;;22.09;60.43;95125.25;5135341;27;1147;-58
2023/07/29 06:19:05;;;;;;;;;;;;;;;22.37;58.85;95122.72;5135356;27;1039;-58
2023/07/29 06:21:31;;;;;;;;;;;;;;;22.47;57.15;95116.66;5135576;27;1071;-60
2023/07/29 06:23:57;;;;;;;;;;;;;;;22.57;58.30;95114.16;5135547;27;993;-59
2023/07/29 06:26:23;;;;;;;;;;;;;;;22.59;57.95;95108.50;5135078;27;1906;-60
2023/07/29 06:28:49;;;;;;;;;;;;;;;22.95;56.78;95107.38;5140319;27;1130;-59
2023/07/29 06:31:15;;;;;;;;;;;;;;;23.09;55.67;95115.34;5155879;27;1047;-60
2023/07/29 06:33:41;;;;;;;;;;;;;;;23.24;55.73;95107.50;5155990;27;1112;-59
2023/07/29 06:36:07;;;;;;;;;;;;;;;23.35;54.36;95105.78;5155518;27;1031;-58
2023/07/29 06:38:33;;;;;;;;;;;;;;;23.45;55.81;95096.97;5155937;27;967;-58
2023/07/29 06:40:59;;;;;;;;;;;;;;;23.49;54.79;95096.25;5155850;27;1050;-59
2023/07/29 06:43:25;;;;;;;;;;;;;;;23.64;55.44;95092.13;5155536;27;1042;-60
2023/07/29 06:45:51;;;;;;;;;;;;;;;23.63;53.54;95090.50;5155873;27;975;-57
2023/07/29 06:48:18;;;;;;;;;;;;;;;23.75;54.78;95096.72;5155244;27;1905;-58
2023/07/29 06:50:44;;;;;;;;;;;;;;;23.97;53.90;95092.22;5155347;27;1047;-59
2023/07/29 06:53:10;;;;;;;;;;;;;;;23.89;53.99;95086.38;5142782;27;2531;-59
2023/07/29 06:55:36;;;;;;;;;;;;;;;24.01;54.05;95086.28;5114433;28;1037;-59
2023/07/29 06:58:02;;;;;;;;;;;;;;;24.10;53.35;95093.00;5114272;28;978;-59
2023/07/29 07:00:28;;;;;;;;;;;;;;;24.15;52.73;95091.19;5114107;28;960;-59
2023/07/29 07:02:54;;;;;;;;;;;;;;;24.45;52.51;95089.19;5114026;28;1015;-59
2023/07/29 07:05:20;;;;;;;;;;;;;;;24.47;52.19;95097.97;5113789;28;974;-59
2023/07/29 07:07:46;;;;;;;;;;;;;;;24.49;52.31;95095.78;5114189;28;1994;-58
2023/07/29 07:10:12;;;;;;;;;;;;;;;24.54;52.50;95093.19;5114184;28;1029;-58
2023/07/29 07:12:38;;;;;;;;;;;;;;;24.83;52.79;95082.09;5114075;28;966;-59
2023/07/29 07:15:04;;;;;;;;;;;;;;;24.98;52.56;95086.97;5113863;28;1040;-59
2023/07/29 07:17:30;;;;;;;;;;;;;;;25.26;50.93;95083.25;5113737;28;1099;-59
2023/07/29 07:19:56;;;;;;;;;;;;;;;25.26;52.04;95080.53;5113809;28;1226;-59
2023/07/29 07:22:22;;;;;;;;;;;;;;;25.28;50.34;95084.66;5113634;28;988;-59
2023/07/29 07:24:48;;;;;;;;;;;;;;;25.36;50.68;95077.06;5113980;28;962;-59
2023/07/29 07:27:14;;;;;;;;;;;;;;;25.47;51.02;95082.41;5113642;28;1914;-59
2023/07/29 07:29:40;;;;;;;;;;;;;;;25.56;50.67;95081.97;5138572;27;1154;-59
2023/07/29 07:32:05;;;;;;;;;;;;;;;25.78;50.51;95080.00;5154973;27;1032;-58
2023/07/29 07:34:33;;;;;;;;;;;;;;;25.96;49.39;95075.28;5154927;27;1036;-59
2023/07/29 07:36:59;;;;;;;;;;;;;;;25.87;49.51;95078.44;5154861;27;1047;-59
2023/07/29 07:39:25;;;;;;;;;;;;;;;25.94;50.30;95071.97;5155050;27;983;-59
2023/07/29 07:41:51;;;;;;;;;;;;;;;25.98;49.61;95086.81;5155552;27;1031;-58
2023/07/29 07:44:17;;;;;;;;;;;;;;;26.07;49.02;95082.50;5155123;27;1070;-58
2023/07/29 07:46:44;;;;;;;;;;;;;;;26.19;49.58;95080.41;5154808;27;1996;-58
2023/07/29 07:49:10;;;;;;;;;;;;;;;26.46;47.19;95072.13;5156989;27;965;-59
2023/07/29 07:51:36;;;;;;;;;;;;;;;26.67;49.09;95081.34;5159444;27;964;-58
2023/07/29 07:54:02;;;;;;;;;;;;;;;26.73;47.49;95078.63;5158915;27;1225;-58
2023/07/29 07:56:28;;;;;;;;;;;;;;;26.90;48.80;95082.06;5158995;27;972;-58
2023/07/29 07:58:54;;;;;;;;;;;;;;;26.92;47.03;95081.75;5159227;27;1047;-58
2023/07/29 08:01:20;;;;;;;;;;;;;;;26.86;46.14;95080.91;5158787;27;1050;-58
2023/07/29 08:03:46;;;;;;;;;;;;;;;26.86;46.09;95083.66;5159026;27;1061;-59
2023/07/29 08:06:11;;;;;;;;;;;;;;;26.98;47.43;95081.53;5158469;27;1212;-59
2023/07/29 08:08:37;;;;;;;;;;;;;;;26.99;46.96;95077.69;5158667;27;1901;-58
2023/07/29 08:11:03;;;;;;;;;;;;;;;27.11;44.50;95074.75;5158665;27;1043;-57
2023/07/29 08:13:29;;;;;;;;;;;;;;;27.44;46.75;95079.00;5158810;27;1040;-57
2023/07/29 08:15:55;;;;;;;;;;;;;;;27.56;45.21;95076.03;5158809;27;1030;-58
2023/07/29 08:18:21;;;;;;;;;;;;;;;27.69;45.01;95071.94;5158468;27;985;-58
2023/07/29 08:20:54;;;;;;;;;;;;;;;27.88;44.98;95072.25;5158705;27;1002;-58
2023/07/29 08:23:20;;;;;;;;;;;;;;;28.09;44.68;95077.81;5158571;27;999;-57
2023/07/29 08:25:51;;;;;;;;;;;;;;;28.14;45.39;95064.91;5158507;27;1051;-56
2023/07/29 08:28:17;;;;;;;;;;;;;;;28.18;44.13;95060.50;5157442;27;1968;-57
2023/07/29 08:30:43;;;;;;;;;;;;;;;28.18;44.28;95062.44;5137593;27;1006;-56
2023/07/29 08:33:09;;;;;;;;;;;;;;;28.32;44.25;95059.97;5137710;27;977;-57
2023/07/29 08:35:34;;;;;;;;;;;;;;;28.46;44.00;95052.81;5137537;27;1062;-56
2023/07/29 08:38:01;;;;;;;;;;;;;;;28.61;44.13;95052.00;5137541;27;1036;-56
2023/07/29 08:40:29;;;;;;;;;;;;;;;28.78;43.82;95057.19;5137387;27;973;-56
2023/07/29 08:42:56;;;;;;;;;;;;;;;28.93;42.63;95054.41;5137270;27;1122;-56
2023/07/29 08:45:23;;;;;;;;;;;;;;;29.02;42.92;95054.66;5137379;27;977;-57
2023/07/29 08:47:50;;;;;;;;;;;;;;;29.10;42.10;95058.75;5137081;27;1905;-57
2023/07/29 08:50:16;;;;;;;;;;;;;;;29.28;40.44;95057.34;5137030;27;1000;-57
2023/07/29 08:52:42;;;;;;;;;;;;;;;29.39;41.06;95051.50;5137000;27;1043;-56
2023/07/29 08:55:08;;;;;;;;;;;;;;;29.30;38.27;95055.94;5136986;27;1044;-56
2023/07/29 08:57:35;;;;;;;;;;;;;;;29.44;41.02;95042.38;5136874;27;1107;-57
2023/07/29 09:00:01;;;;;;;;;;;;;;;29.39;40.26;95046.00;5136558;27;1028;-56
2023/07/29 09:02:27;;;;;;;;;;;;;;;29.15;39.02;95050.50;5136810;27;966;-56
2023/07/29 09:04:53;;;;;;;;;;;;;;;29.29;37.58;95050.72;5136729;27;1090;-57
2023/07/29 09:07:20;;;;;;;;;;;;;;;29.52;39.14;95050.06;5136591;27;1901;-56
2023/07/29 09:09:46;;;;;;;;;;;;;;;29.76;38.14;95041.97;5136701;27;1011;-56
2023/07/29 09:12:12;;;;;;;;;;;;;;;29.77;37.75;95043.63;5136606;27;1044;-55
2023/07/29 09:14:38;;;;;;;;;;;;;;;29.83;37.87;95030.63;5131557;27;2897;-56
2023/07/29 09:17:07;;;;;;;;;;;;;;;29.86;38.52;95031.97;5098257;28;969;-56
2023/07/29 09:19:33;;;;;;;;;;;;;;;30.06;38.88;95026.31;5116330;28;987;-56
2023/07/29 09:21:59;;;;;;;;;;;;;;;30.19;37.05;95035.06;5098110;28;985;-55
2023/07/29 09:24:29;;;;;;;;;;;;;;;30.09;35.73;95038.69;5116054;28;1292;-56
2023/07/29 09:26:55;;;;;;;;;;;;;;;30.06;35.20;95036.53;5127692;27;1910;-57
2023/07/29 09:29:22;;;;;;;;;;;;;;;30.11;35.92;95037.31;5136129;27;1196;-57
2023/07/29 09:31:48;;;;;;;;;;;;;;;30.27;36.53;95026.97;5136659;27;1010;-57
2023/07/29 09:34:15;;;;;;;;;;;;;;;30.18;35.20;95031.47;5136642;27;1033;-56
2023/07/29 09:36:41;;;;;;;;;;;;;;;30.24;37.10;95023.97;5136606;27;1031;-56
2023/07/29 09:39:10;;;;;;;;;;;;;;;30.36;37.47;95016.19;5134504;27;2930;-56
2023/07/29 09:41:36;;;;;;;;;;;;;;;30.48;36.83;95008.34;5136176;27;1102;-57
2023/07/29 09:44:03;;;;;;;;;;;;;;;30.44;37.91;95009.22;5117904;27;1143;-57
2023/07/29 09:46:34;;;;;;;;;;;;;;;30.28;34.97;95023.13;5136023;27;2003;-57
2023/07/29 09:49:01;;;;;;;;;;;;;;;30.32;35.79;95015.13;5136277;27;973;-57
2023/07/29 09:51:27;;;;;;;;;;;;;;;30.33;35.92;95014.00;5136167;27;981;-57
2023/07/29 09:53:53;;;;;;;;;;;;;;;30.35;35.55;95014.53;5136053;27;953;-57
2023/07/29 09:56:26;;;;;;;;;;;;;;;30.56;35.14;95012.41;5135862;27;1095;-56
2023/07/29 09:58:52;;;;;;;;;;;;;;;30.78;34.92;95008.34;5135821;27;1032;-57
2023/07/29 10:01:18;;;;;;;;;;;;;;;30.83;35.65;95009.09;5136092;27;1106;-57
2023/07/29 10:03:45;;;;;;;;;;;;;;;30.65;35.71;95007.09;5135739;27;936;-57
2023/07/29 10:06:11;;;;;;;;;;;;;;;30.71;35.09;95003.97;5135604;27;1051;-57
2023/07/29 10:08:39;;;;;;;;;;;;;;;30.79;35.89;94997.00;5135593;27;1909;-57
2023/07/29 10:11:06;;;;;;;;;;;;;;;30.80;34.26;95001.41;5134754;27;1040;-57
2023/07/29 10:13:33;;;;;;;;;;;;;;;30.90;35.81;94990.25;5135742;27;973;-56
2023/07/29 10:16:02;;;;;;;;;;;;;;;31.02;36.15;94991.78;5135460;27;1024;-56
2023/07/29 10:18:29;;;;;;;;;;;;;;;31.01;34.07;94992.91;5117154;27;1874;-56
2023/07/29 10:20:56;;;;;;;;;;;;;;;30.85;32.12;94995.84;5135589;27;1030;-56
2023/07/29 10:23:24;;;;;;;;;;;;;;;30.84;35.98;94980.38;5135422;27;973;-56
2023/07/29 10:25:52;;;;;;;;;;;;;;;30.98;34.92;94983.31;5135634;27;1050;-56
2023/07/29 10:28:20;;;;;;;;;;;;;;;31.01;33.87;94981.88;5135645;27;1910;-57
2023/07/29 10:30:47;;;;;;;;;;;;;;;31.08;34.98;94980.41;5156032;27;1991;-57
2023/07/29 10:33:13;;;;;;;;;;;;;;;31.09;33.36;94976.53;5156116;27;972;-57
2023/07/29 10:35:40;;;;;;;;;;;;;;;31.13;34.93;94971.22;5155848;27;1247;-57
2023/07/29 10:38:06;;;;;;;;;;;;;;;31.05;33.69;94963.59;5155839;27;1099;-57
2023/07/29 10:41:11;;;;;;;;;;;;;;;30.92;32.57;94965.97;5155723;27;1855;-56
2023/07/29 10:43:40;;;;;;;;;;;;;;;30.97;32.17;94965.09;5051685;28;1313;-57
2023/07/29 10:46:19;;;;;;;;;;;;;;;30.97;32.19;94965.09;5041229;28;2963;-57
2023/07/29 10:48:51;;;;;;;;;;;;;;;30.90;31.72;94959.91;5079466;28;1927;-57
2023/07/29 10:51:26;;;;;;;;;;;;;;;30.92;32.98;94952.19;5114453;28;1315;-57
2023/07/29 10:53:56;;;;;;;;;;;;;;;30.95;32.15;94961.78;5114713;28;2850;-57
2023/07/29 10:56:29;;;;;;;;;;;;;;;31.03;32.29;94954.81;5114198;28;1088;-57
2023/07/29 10:58:56;;;;;;;;;;;;;;;31.10;32.13;94952.50;5114271;28;1141;-56
2023/07/29 11:01:29;;;;;;;;;;;;;;;31.31;30.18;94956.63;5115088;27;2475;-57
2023/07/29 11:04:23;;;;;;;;;;;;;;;31.04;27.74;94959.22;5134820;27;1040;-57
2023/07/29 11:07:04;;;;;;;;;;;;;;;31.21;31.82;94951.25;5134544;27;1995;-58
2023/07/29 11:09:39;;;;;;;;;;;;;;;31.23;30.38;94957.31;5134801;27;977;-57
2023/07/29 11:12:26;;;;;;;;;;;;;;;31.24;31.08;94947.06;5134470;27;1028;-58
2023/07/29 11:14:52;;;;;;;;;;;;;;;31.27;29.35;94943.72;5132990;27;2577;-56
2023/07/29 11:17:18;;;;;;;;;;;;;;;31.32;31.11;94938.94;5134360;27;1048;-57
2023/07/29 11:19:44;;;;;;;;;;;;;;;31.43;31.37;94931.31;5134412;27;1040;-55
2023/07/29 11:22:11;;;;;;;;;;;;;;;31.50;31.79;94934.56;5134465;27;960;-55
2023/07/29 11:24:37;;;;;;;;;;;;;;;31.50;30.49;94939.28;5134393;27;972;-55
2023/07/29 11:27:03;;;;;;;;;;;;;;;31.56;31.06;94931.72;5134375;27;1910;-57
2023/07/29 11:29:29;;;;;;;;;;;;;;;31.61;30.82;94934.44;5145075;27;1165;-55
2023/07/29 11:31:55;;;;;;;;;;;;;;;31.55;28.93;94935.59;5155014;27;917;-55
2023/07/29 11:34:30;;;;;;;;;;;;;;;31.51;29.60;94925.16;5154843;27;1116;-54
2023/07/29 11:36:57;;;;;;;;;;;;;;;31.64;30.44;94926.34;5154931;27;1582;-56
2023/07/29 11:39:23;;;;;;;;;;;;;;;31.78;30.17;94923.66;5154727;27;1067;-57
2023/07/29 11:41:49;;;;;;;;;;;;;;;31.80;29.89;94920.59;5154907;27;1110;-56
2023/07/29 11:44:18;;;;;;;;;;;;;;;31.92;29.28;94920.94;5124781;27;2494;-56
2023/07/29 11:46:44;;;;;;;;;;;;;;;31.89;27.92;94924.28;5113438;28;1964;-57
2023/07/29 11:49:10;;;;;;;;;;;;;;;31.63;29.10;94918.38;5113522;28;964;-57
2023/07/29 11:51:36;;;;;;;;;;;;;;;31.67;28.91;94919.41;5113523;28;1036;-57
2023/07/29 11:54:03;;;;;;;;;;;;;;;31.76;30.03;94906.56;5113430;28;975;-57
2023/07/29 11:56:30;;;;;;;;;;;;;;;31.70;30.74;94908.56;5113694;28;1057;-57
2023/07/29 11:58:56;;;;;;;;;;;;;;;31.45;30.32;94906.97;5113498;28;1048;-58
2023/07/29 12:04:46;;;;;;;;;;;;;;;31.21;31.60;94884.13;5113781;28;1099;-57
2023/07/29 12:07:13;;;;;;;;;;;;;;;30.99;33.04;94888.31;5113420;28;1981;-56
2023/07/29 12:09:39;;;;;;;;;;;;;;;30.89;32.51;94886.50;5113510;28;1031;-56
2023/07/29 12:12:06;;;;;;;;;;;;;;;31.00;31.84;94884.44;5113566;28;969;-56
2023/07/29 12:14:32;;;;;;;;;;;;;;;31.22;32.18;94883.03;5113283;28;1015;-56
2023/07/29 12:17:02;;;;;;;;;;;;;;;31.35;29.62;94887.00;5113154;28;969;-57
2023/07/29 12:19:33;;;;;;;;;;;;;;;31.55;30.49;94897.78;5113130;28;1063;-57
2023/07/29 12:21:59;;;;;;;;;;;;;;;31.67;32.04;94883.47;5127632;28;2542;-57
2023/07/29 12:24:25;;;;;;;;;;;;;;;31.62;31.66;94883.56;5133972;28;976;-57
2023/07/29 12:26:51;;;;;;;;;;;;;;;31.76;31.36;94892.72;5133719;28;1909;-57
2023/07/29 12:29:21;;;;;;;;;;;;;;;31.65;32.55;94882.97;5142598;27;1204;-57
2023/07/29 12:31:47;;;;;;;;;;;;;;;31.37;32.04;94882.00;5146105;27;2566;-57
2023/07/29 12:34:21;;;;;;;;;;;;;;;30.94;31.99;94883.69;5113744;28;1024;-57
2023/07/29 12:36:49;;;;;;;;;;;;;;;30.72;30.89;94878.69;5117048;28;1044;-57
2023/07/29 12:39:19;;;;;;;;;;;;;;;30.60;32.67;94875.56;5116695;28;1104;-58
2023/07/29 12:41:45;;;;;;;;;;;;;;;30.45;32.55;94871.03;5116726;28;966;-58
2023/07/29 12:44:11;;;;;;;;;;;;;;;30.44;31.26;94872.13;5116833;28;985;-57
2023/07/29 12:46:37;;;;;;;;;;;;;;;30.46;31.77;94869.09;5116587;28;1909;-56
2023/07/29 12:49:03;;;;;;;;;;;;;;;30.43;32.15;94864.16;5116879;28;1020;-56
2023/07/29 12:51:29;;;;;;;;;;;;;;;30.43;33.11;94864.16;5116517;28;1118;-57
2023/07/29 12:53:55;;;;;;;;;;;;;;;30.37;32.50;94874.41;5116787;28;1040;-56
2023/07/29 12:56:20;;;;;;;;;;;;;;;30.33;33.19;94873.38;5117566;27;2868;-56
2023/07/29 12:58:46;;;;;;;;;;;;;;;30.38;32.88;94873.31;5116694;28;1047;-56
2023/07/29 13:01:17;;;;;;;;;;;;;;;30.34;35.12;94859.28;5116610;28;970;-56